sensor_id;sensor_type;location;lat;lon;timestamp;P1;durP1;ratioP1;P2;durP2;ratioP2
27977;SDS011;15314;49.248;6.968;2023-12-14T00:15:00;18.52;;;16.92;;
27977;SDS011;15314;49.248;6.968;2023-12-14T00:16:01;17.35;;;15.73;;
27977;SDS011;15314;49.248;6.968;2023-12-14T00:17:02;18.48;;;16.75;;
27977;SDS011;15314;49.248;6.968;2023-12-14T00:18:03;17.15;;;15.52;;
27977;SDS011;15314;49.248;6.968;2023-12-14T00:19:03;18.02;;;16.38;;
27977;SDS011;15314;49.248;6.968;2023-12-14T00:20:04;17.35;;;15.73;;
27977;SDS011;15314;49.248;6.968;2023-12-14T00:21:06;18.20;;;16.55;;
27977;SDS011;15314;49.248;6.968;2023-12-14T00:22:06;17.30;;;15.65;;
27977;SDS011;15314;49.248;6.968;2023-12-14T00:23:07;17.08;;;15.57;;
27977;SDS011;15314;49.248;6.968;2023-12-14T00:24:08;17.13;;;15.30;;
27977;SDS011;15314;49.248;6.968;2023-12-14T00:25:08;17.60;;;16.08;;
27977;SDS011;15314;49.248;6.968;2023-12-14T00:26:09;18.13;;;16.42;;
27977;SDS011;15314;49.248;6.968;2023-12-14T00:27:10;16.67;;;15.25;;
27977;SDS011;15314;49.248;6.968;2023-12-14T00:28:10;16.85;;;15.30;;
27977;SDS011;15314;49.248;6.968;2023-12-14T00:29:11;16.15;;;14.80;;
27977;SDS011;15314;49.248;6.968;2023-12-14T00:30:11;16.38;;;14.88;;
27977;SDS011;15314;49.248;6.968;2023-12-14T00:31:12;17.65;;;16.02;;
27977;SDS011;15314;49.248;6.968;2023-12-14T00:32:13;16.85;;;15.43;;
27977;SDS011;15314;49.248;6.968;2023-12-14T00:33:14;17.00;;;15.38;;
27977;SDS011;15314;49.248;6.968;2023-12-14T00:34:14;17.38;;;15.88;;
27977;SDS011;15314;49.248;6.968;2023-12-14T00:35:15;16.85;;;15.45;;
27977;SDS011;15314;49.248;6.968;2023-12-14T00:36:18;18.55;;;16.75;;
27977;SDS011;15314;49.248;6.968;2023-12-14T00:37:19;18.10;;;16.50;;
27977;SDS011;15314;49.248;6.968;2023-12-14T00:38:20;17.65;;;15.90;;
27977;SDS011;15314;49.248;6.968;2023-12-14T00:39:20;18.48;;;16.67;;
27977;SDS011;15314;49.248;6.968;2023-12-14T00:40:21;18.38;;;16.45;;
27977;SDS011;15314;49.248;6.968;2023-12-14T00:41:22;19.83;;;16.73;;
27977;SDS011;15314;49.248;6.968;2023-12-14T00:42:22;19.45;;;17.55;;
27977;SDS011;15314;49.248;6.968;2023-12-14T00:43:23;18.30;;;16.70;;
27977;SDS011;15314;49.248;6.968;2023-12-14T00:44:24;20.10;;;18.13;;
27977;SDS011;15314;49.248;6.968;2023-12-14T00:45:24;21.48;;;18.98;;
27977;SDS011;15314;49.248;6.968;2023-12-14T00:46:25;19.83;;;18.00;;
27977;SDS011;15314;49.248;6.968;2023-12-14T00:47:25;17.70;;;16.02;;
27977;SDS011;15314;49.248;6.968;2023-12-14T00:48:26;18.73;;;16.90;;
27977;SDS011;15314;49.248;6.968;2023-12-14T00:49:27;18.75;;;17.02;;
27977;SDS011;15314;49.248;6.968;2023-12-14T00:50:28;18.05;;;16.40;;
27977;SDS011;15314;49.248;6.968;2023-12-14T00:51:29;21.77;;;18.65;;
27977;SDS011;15314;49.248;6.968;2023-12-14T00:52:30;19.33;;;17.48;;
27977;SDS011;15314;49.248;6.968;2023-12-14T00:53:30;18.42;;;16.92;;
27977;SDS011;15314;49.248;6.968;2023-12-14T00:54:31;18.25;;;16.55;;
27977;SDS011;15314;49.248;6.968;2023-12-14T00:55:31;19.02;;;17.50;;
27977;SDS011;15314;49.248;6.968;2023-12-14T00:56:32;20.90;;;19.08;;
27977;SDS011;15314;49.248;6.968;2023-12-14T00:57:33;18.55;;;16.95;;
27977;SDS011;15314;49.248;6.968;2023-12-14T00:58:33;19.27;;;17.42;;
27977;SDS011;15314;49.248;6.968;2023-12-14T00:59:34;18.95;;;17.20;;
27977;SDS011;15314;49.248;6.968;2023-12-14T01:00:34;21.48;;;19.27;;
27977;SDS011;15314;49.248;6.968;2023-12-14T01:01:35;20.63;;;18.40;;
27977;SDS011;15314;49.248;6.968;2023-12-14T01:02:36;18.83;;;17.00;;
27977;SDS011;15314;49.248;6.968;2023-12-14T01:03:37;20.23;;;18.17;;
27977;SDS011;15314;49.248;6.968;2023-12-14T01:04:38;19.27;;;17.48;;
27977;SDS011;15314;49.248;6.968;2023-12-14T01:05:38;18.77;;;17.08;;
27977;SDS011;15314;49.248;6.968;2023-12-14T01:06:39;19.63;;;17.55;;
27977;SDS011;15314;49.248;6.968;2023-12-14T01:07:40;20.00;;;18.00;;
27977;SDS011;15314;49.248;6.968;2023-12-14T01:08:40;19.27;;;17.38;;
27977;SDS011;15314;49.248;6.968;2023-12-14T01:09:41;19.10;;;17.50;;
27977;SDS011;15314;49.248;6.968;2023-12-14T01:10:42;18.92;;;17.23;;
27977;SDS011;15314;49.248;6.968;2023-12-14T01:11:42;18.02;;;16.55;;
27977;SDS011;15314;49.248;6.968;2023-12-14T01:12:43;19.25;;;17.67;;
27977;SDS011;15314;49.248;6.968;2023-12-14T01:13:44;20.25;;;18.45;;
27977;SDS011;15314;49.248;6.968;2023-12-14T01:14:44;19.75;;;17.50;;
27977;SDS011;15314;49.248;6.968;2023-12-14T01:15:45;18.13;;;16.55;;
27977;SDS011;15314;49.248;6.968;2023-12-14T01:16:45;18.70;;;17.13;;
27977;SDS011;15314;49.248;6.968;2023-12-14T01:17:46;19.13;;;17.50;;
27977;SDS011;15314;49.248;6.968;2023-12-14T01:18:47;19.67;;;17.77;;
27977;SDS011;15314;49.248;6.968;2023-12-14T01:19:47;19.38;;;17.75;;
27977;SDS011;15314;49.248;6.968;2023-12-14T01:20:48;19.13;;;17.42;;
27977;SDS011;15314;49.248;6.968;2023-12-14T01:21:48;18.73;;;17.13;;
27977;SDS011;15314;49.248;6.968;2023-12-14T01:22:49;19.17;;;17.35;;
27977;SDS011;15314;49.248;6.968;2023-12-14T01:23:50;21.45;;;19.42;;
27977;SDS011;15314;49.248;6.968;2023-12-14T01:24:52;19.30;;;17.40;;
27977;SDS011;15314;49.248;6.968;2023-12-14T01:25:53;20.55;;;18.65;;
27977;SDS011;15314;49.248;6.968;2023-12-14T01:26:53;17.95;;;16.55;;
27977;SDS011;15314;49.248;6.968;2023-12-14T01:27:54;20.20;;;18.13;;
27977;SDS011;15314;49.248;6.968;2023-12-14T01:28:54;19.73;;;17.83;;
27977;SDS011;15314;49.248;6.968;2023-12-14T01:29:55;20.45;;;18.65;;
27977;SDS011;15314;49.248;6.968;2023-12-14T01:30:56;19.77;;;17.70;;
27977;SDS011;15314;49.248;6.968;2023-12-14T01:31:57;19.88;;;17.92;;
27977;SDS011;15314;49.248;6.968;2023-12-14T01:32:57;19.45;;;17.73;;
27977;SDS011;15314;49.248;6.968;2023-12-14T01:33:58;18.52;;;16.98;;
27977;SDS011;15314;49.248;6.968;2023-12-14T01:34:58;18.25;;;16.80;;
27977;SDS011;15314;49.248;6.968;2023-12-14T01:35:59;19.35;;;17.48;;
27977;SDS011;15314;49.248;6.968;2023-12-14T01:37:00;19.15;;;17.50;;
27977;SDS011;15314;49.248;6.968;2023-12-14T01:38:00;19.40;;;17.70;;
27977;SDS011;15314;49.248;6.968;2023-12-14T01:39:01;19.75;;;17.95;;
27977;SDS011;15314;49.248;6.968;2023-12-14T01:40:02;19.10;;;17.52;;
27977;SDS011;15314;49.248;6.968;2023-12-14T01:41:02;19.95;;;18.25;;
27977;SDS011;15314;49.248;6.968;2023-12-14T01:42:03;19.50;;;17.80;;
27977;SDS011;15314;49.248;6.968;2023-12-14T01:43:08;19.02;;;17.23;;
27977;SDS011;15314;49.248;6.968;2023-12-14T01:44:10;18.65;;;17.05;;
27977;SDS011;15314;49.248;6.968;2023-12-14T01:45:11;20.13;;;18.30;;
27977;SDS011;15314;49.248;6.968;2023-12-14T01:46:15;20.17;;;18.20;;
27977;SDS011;15314;49.248;6.968;2023-12-14T01:47:16;19.73;;;18.13;;
27977;SDS011;15314;49.248;6.968;2023-12-14T01:48:17;19.60;;;17.73;;
27977;SDS011;15314;49.248;6.968;2023-12-14T01:49:18;19.77;;;17.90;;
27977;SDS011;15314;49.248;6.968;2023-12-14T01:50:18;20.15;;;17.88;;
27977;SDS011;15314;49.248;6.968;2023-12-14T01:51:19;19.70;;;18.02;;
27977;SDS011;15314;49.248;6.968;2023-12-14T01:52:19;18.63;;;16.95;;
27977;SDS011;15314;49.248;6.968;2023-12-14T01:53:20;18.70;;;17.05;;
27977;SDS011;15314;49.248;6.968;2023-12-14T01:54:21;18.45;;;16.95;;
27977;SDS011;15314;49.248;6.968;2023-12-14T01:55:21;18.02;;;16.63;;
27977;SDS011;15314;49.248;6.968;2023-12-14T01:56:22;18.27;;;16.65;;
27977;SDS011;15314;49.248;6.968;2023-12-14T01:57:22;19.48;;;17.70;;
27977;SDS011;15314;49.248;6.968;2023-12-14T01:58:23;18.83;;;17.17;;
27977;SDS011;15314;49.248;6.968;2023-12-14T01:59:25;24.55;;;18.90;;
27977;SDS011;15314;49.248;6.968;2023-12-14T02:01:52;19.10;;;17.33;;
27977;SDS011;15314;49.248;6.968;2023-12-14T02:02:56;18.45;;;16.85;;
27977;SDS011;15314;49.248;6.968;2023-12-14T02:03:56;18.45;;;16.55;;
27977;SDS011;15314;49.248;6.968;2023-12-14T02:04:57;20.02;;;18.05;;
27977;SDS011;15314;49.248;6.968;2023-12-14T02:05:58;19.52;;;17.73;;
27977;SDS011;15314;49.248;6.968;2023-12-14T02:06:58;19.00;;;17.20;;
27977;SDS011;15314;49.248;6.968;2023-12-14T02:08:00;18.63;;;16.83;;
27977;SDS011;15314;49.248;6.968;2023-12-14T02:09:01;19.77;;;17.95;;
27977;SDS011;15314;49.248;6.968;2023-12-14T02:10:02;17.83;;;16.23;;
27977;SDS011;15314;49.248;6.968;2023-12-14T02:11:02;18.33;;;16.63;;
27977;SDS011;15314;49.248;6.968;2023-12-14T02:12:04;19.92;;;17.90;;
27977;SDS011;15314;49.248;6.968;2023-12-14T02:13:05;19.20;;;17.63;;
27977;SDS011;15314;49.248;6.968;2023-12-14T02:14:06;19.83;;;17.95;;
27977;SDS011;15314;49.248;6.968;2023-12-14T02:15:09;19.05;;;17.27;;
27977;SDS011;15314;49.248;6.968;2023-12-14T02:16:09;20.30;;;18.50;;
27977;SDS011;15314;49.248;6.968;2023-12-14T02:17:10;18.95;;;17.02;;
27977;SDS011;15314;49.248;6.968;2023-12-14T02:18:11;20.13;;;18.27;;
27977;SDS011;15314;49.248;6.968;2023-12-14T02:19:11;18.92;;;17.33;;
27977;SDS011;15314;49.248;6.968;2023-12-14T02:20:12;19.45;;;17.77;;
27977;SDS011;15314;49.248;6.968;2023-12-14T02:21:12;18.20;;;16.40;;
27977;SDS011;15314;49.248;6.968;2023-12-14T02:22:13;19.50;;;17.52;;
27977;SDS011;15314;49.248;6.968;2023-12-14T02:23:16;18.15;;;16.67;;
27977;SDS011;15314;49.248;6.968;2023-12-14T02:24:16;19.33;;;17.60;;
27977;SDS011;15314;49.248;6.968;2023-12-14T02:25:17;20.00;;;18.20;;
27977;SDS011;15314;49.248;6.968;2023-12-14T02:26:19;19.15;;;17.63;;
27977;SDS011;15314;49.248;6.968;2023-12-14T02:27:19;17.83;;;16.42;;
27977;SDS011;15314;49.248;6.968;2023-12-14T02:28:20;18.95;;;17.13;;
27977;SDS011;15314;49.248;6.968;2023-12-14T02:29:20;19.25;;;17.58;;
27977;SDS011;15314;49.248;6.968;2023-12-14T02:30:21;18.25;;;16.65;;
27977;SDS011;15314;49.248;6.968;2023-12-14T02:31:22;17.55;;;16.20;;
27977;SDS011;15314;49.248;6.968;2023-12-14T02:32:23;18.95;;;17.45;;
27977;SDS011;15314;49.248;6.968;2023-12-14T02:33:23;19.92;;;17.92;;
27977;SDS011;15314;49.248;6.968;2023-12-14T02:34:24;19.00;;;17.33;;
27977;SDS011;15314;49.248;6.968;2023-12-14T02:35:27;18.70;;;17.10;;
27977;SDS011;15314;49.248;6.968;2023-12-14T02:36:28;18.75;;;17.17;;
27977;SDS011;15314;49.248;6.968;2023-12-14T02:37:28;20.58;;;18.73;;
27977;SDS011;15314;49.248;6.968;2023-12-14T02:38:29;19.88;;;18.15;;
27977;SDS011;15314;49.248;6.968;2023-12-14T02:39:30;17.42;;;16.00;;
27977;SDS011;15314;49.248;6.968;2023-12-14T02:40:30;19.70;;;18.02;;
27977;SDS011;15314;49.248;6.968;2023-12-14T02:41:31;19.88;;;18.00;;
27977;SDS011;15314;49.248;6.968;2023-12-14T02:42:32;19.45;;;17.75;;
27977;SDS011;15314;49.248;6.968;2023-12-14T02:43:33;20.88;;;18.92;;
27977;SDS011;15314;49.248;6.968;2023-12-14T02:44:34;18.55;;;17.05;;
27977;SDS011;15314;49.248;6.968;2023-12-14T02:45:35;20.60;;;18.80;;
27977;SDS011;15314;49.248;6.968;2023-12-14T02:46:35;18.42;;;16.88;;
27977;SDS011;15314;49.248;6.968;2023-12-14T02:47:36;19.80;;;18.10;;
27977;SDS011;15314;49.248;6.968;2023-12-14T02:48:37;18.58;;;17.02;;
27977;SDS011;15314;49.248;6.968;2023-12-14T02:49:37;18.60;;;17.15;;
27977;SDS011;15314;49.248;6.968;2023-12-14T02:50:38;17.98;;;16.48;;
27977;SDS011;15314;49.248;6.968;2023-12-14T02:51:38;18.60;;;17.15;;
27977;SDS011;15314;49.248;6.968;2023-12-14T02:52:39;19.85;;;18.00;;
27977;SDS011;15314;49.248;6.968;2023-12-14T02:53:40;17.20;;;15.77;;
27977;SDS011;15314;49.248;6.968;2023-12-14T02:54:41;18.52;;;17.02;;
27977;SDS011;15314;49.248;6.968;2023-12-14T02:55:42;19.15;;;17.55;;
27977;SDS011;15314;49.248;6.968;2023-12-14T02:56:43;19.35;;;17.77;;
27977;SDS011;15314;49.248;6.968;2023-12-14T02:57:43;18.83;;;17.15;;
27977;SDS011;15314;49.248;6.968;2023-12-14T02:58:44;18.42;;;16.75;;
27977;SDS011;15314;49.248;6.968;2023-12-14T02:59:49;18.85;;;17.40;;
27977;SDS011;15314;49.248;6.968;2023-12-14T03:00:49;17.88;;;16.42;;
27977;SDS011;15314;49.248;6.968;2023-12-14T03:01:50;19.33;;;17.58;;
27977;SDS011;15314;49.248;6.968;2023-12-14T03:02:51;18.77;;;17.38;;
27977;SDS011;15314;49.248;6.968;2023-12-14T03:03:52;19.08;;;17.35;;
27977;SDS011;15314;49.248;6.968;2023-12-14T03:04:52;18.20;;;16.67;;
27977;SDS011;15314;49.248;6.968;2023-12-14T03:05:54;19.25;;;17.58;;
27977;SDS011;15314;49.248;6.968;2023-12-14T03:06:55;18.90;;;17.30;;
27977;SDS011;15314;49.248;6.968;2023-12-14T03:07:56;18.40;;;16.90;;
27977;SDS011;15314;49.248;6.968;2023-12-14T03:08:56;19.35;;;17.70;;
27977;SDS011;15314;49.248;6.968;2023-12-14T03:09:57;19.45;;;17.70;;
27977;SDS011;15314;49.248;6.968;2023-12-14T03:10:58;18.88;;;17.17;;
27977;SDS011;15314;49.248;6.968;2023-12-14T03:11:59;18.60;;;16.83;;
27977;SDS011;15314;49.248;6.968;2023-12-14T03:13:00;18.40;;;16.80;;
27977;SDS011;15314;49.248;6.968;2023-12-14T03:14:01;18.05;;;16.55;;
27977;SDS011;15314;49.248;6.968;2023-12-14T03:15:01;18.65;;;17.08;;
27977;SDS011;15314;49.248;6.968;2023-12-14T03:16:02;18.23;;;16.73;;
27977;SDS011;15314;49.248;6.968;2023-12-14T03:17:03;18.30;;;16.83;;
27977;SDS011;15314;49.248;6.968;2023-12-14T03:18:04;17.75;;;16.33;;
27977;SDS011;15314;49.248;6.968;2023-12-14T03:19:04;20.10;;;18.20;;
27977;SDS011;15314;49.248;6.968;2023-12-14T03:20:05;18.08;;;16.73;;
27977;SDS011;15314;49.248;6.968;2023-12-14T03:21:06;20.27;;;18.45;;
27977;SDS011;15314;49.248;6.968;2023-12-14T03:22:07;18.20;;;16.48;;
27977;SDS011;15314;49.248;6.968;2023-12-14T03:23:08;18.15;;;16.63;;
27977;SDS011;15314;49.248;6.968;2023-12-14T03:24:09;18.50;;;16.80;;
27977;SDS011;15314;49.248;6.968;2023-12-14T03:25:10;19.88;;;18.02;;
27977;SDS011;15314;49.248;6.968;2023-12-14T03:26:11;18.48;;;16.83;;
27977;SDS011;15314;49.248;6.968;2023-12-14T03:27:11;19.63;;;18.13;;
27977;SDS011;15314;49.248;6.968;2023-12-14T03:28:12;18.33;;;16.88;;
27977;SDS011;15314;49.248;6.968;2023-12-14T03:29:13;19.13;;;17.52;;
27977;SDS011;15314;49.248;6.968;2023-12-14T03:30:13;18.58;;;17.08;;
27977;SDS011;15314;49.248;6.968;2023-12-14T03:31:14;26.08;;;21.15;;
27977;SDS011;15314;49.248;6.968;2023-12-14T03:32:15;19.67;;;18.08;;
27977;SDS011;15314;49.248;6.968;2023-12-14T03:33:15;22.33;;;19.83;;
27977;SDS011;15314;49.248;6.968;2023-12-14T03:34:17;17.48;;;16.00;;
27977;SDS011;15314;49.248;6.968;2023-12-14T03:35:17;17.48;;;16.08;;
27977;SDS011;15314;49.248;6.968;2023-12-14T03:36:18;21.83;;;19.83;;
27977;SDS011;15314;49.248;6.968;2023-12-14T03:37:18;19.33;;;17.73;;
27977;SDS011;15314;49.248;6.968;2023-12-14T03:38:19;20.85;;;19.05;;
27977;SDS011;15314;49.248;6.968;2023-12-14T03:39:19;20.45;;;18.52;;
27977;SDS011;15314;49.248;6.968;2023-12-14T03:40:20;18.33;;;16.73;;
27977;SDS011;15314;49.248;6.968;2023-12-14T03:41:21;17.80;;;16.30;;
27977;SDS011;15314;49.248;6.968;2023-12-14T03:42:21;18.67;;;17.17;;
27977;SDS011;15314;49.248;6.968;2023-12-14T03:45:16;18.52;;;17.02;;
27977;SDS011;15314;49.248;6.968;2023-12-14T03:46:17;17.55;;;16.00;;
27977;SDS011;15314;49.248;6.968;2023-12-14T03:47:17;17.30;;;16.00;;
27977;SDS011;15314;49.248;6.968;2023-12-14T03:48:18;17.25;;;15.90;;
27977;SDS011;15314;49.248;6.968;2023-12-14T03:49:19;17.85;;;16.42;;
27977;SDS011;15314;49.248;6.968;2023-12-14T03:50:19;18.55;;;16.88;;
27977;SDS011;15314;49.248;6.968;2023-12-14T03:51:20;16.67;;;15.35;;
27977;SDS011;15314;49.248;6.968;2023-12-14T03:52:21;17.73;;;16.33;;
27977;SDS011;15314;49.248;6.968;2023-12-14T03:53:21;17.80;;;16.30;;
27977;SDS011;15314;49.248;6.968;2023-12-14T03:54:22;17.25;;;15.95;;
27977;SDS011;15314;49.248;6.968;2023-12-14T03:55:23;17.85;;;16.20;;
27977;SDS011;15314;49.248;6.968;2023-12-14T03:56:23;18.45;;;16.65;;
27977;SDS011;15314;49.248;6.968;2023-12-14T03:57:24;17.98;;;16.58;;
27977;SDS011;15314;49.248;6.968;2023-12-14T03:58:24;18.77;;;17.13;;
27977;SDS011;15314;49.248;6.968;2023-12-14T03:59:25;19.50;;;17.80;;
27977;SDS011;15314;49.248;6.968;2023-12-14T04:00:25;17.15;;;15.85;;
27977;SDS011;15314;49.248;6.968;2023-12-14T04:01:26;19.38;;;17.67;;
27977;SDS011;15314;49.248;6.968;2023-12-14T04:02:27;18.15;;;16.45;;
27977;SDS011;15314;49.248;6.968;2023-12-14T04:03:27;19.83;;;18.08;;
27977;SDS011;15314;49.248;6.968;2023-12-14T04:04:28;20.10;;;18.42;;
27977;SDS011;15314;49.248;6.968;2023-12-14T04:05:29;18.17;;;16.55;;
27977;SDS011;15314;49.248;6.968;2023-12-14T04:06:29;19.23;;;17.45;;
27977;SDS011;15314;49.248;6.968;2023-12-14T04:07:30;21.15;;;18.95;;
27977;SDS011;15314;49.248;6.968;2023-12-14T04:08:30;21.92;;;19.73;;
27977;SDS011;15314;49.248;6.968;2023-12-14T04:09:31;19.83;;;18.08;;
27977;SDS011;15314;49.248;6.968;2023-12-14T04:10:31;20.83;;;18.80;;
27977;SDS011;15314;49.248;6.968;2023-12-14T04:11:32;18.52;;;17.05;;
27977;SDS011;15314;49.248;6.968;2023-12-14T04:12:33;20.70;;;18.90;;
27977;SDS011;15314;49.248;6.968;2023-12-14T04:13:34;18.70;;;17.20;;
27977;SDS011;15314;49.248;6.968;2023-12-14T04:14:35;20.73;;;18.92;;
27977;SDS011;15314;49.248;6.968;2023-12-14T04:15:35;19.77;;;18.05;;
27977;SDS011;15314;49.248;6.968;2023-12-14T04:16:36;18.15;;;16.42;;
27977;SDS011;15314;49.248;6.968;2023-12-14T04:17:36;19.83;;;17.92;;
27977;SDS011;15314;49.248;6.968;2023-12-14T04:18:37;19.38;;;17.83;;
27977;SDS011;15314;49.248;6.968;2023-12-14T04:19:38;19.00;;;17.40;;
27977;SDS011;15314;49.248;6.968;2023-12-14T04:20:39;18.50;;;17.20;;
27977;SDS011;15314;49.248;6.968;2023-12-14T04:21:40;19.23;;;17.42;;
27977;SDS011;15314;49.248;6.968;2023-12-14T04:22:41;19.52;;;17.80;;
27977;SDS011;15314;49.248;6.968;2023-12-14T04:23:42;19.15;;;17.70;;
27977;SDS011;15314;49.248;6.968;2023-12-14T04:24:45;20.08;;;18.38;;
27977;SDS011;15314;49.248;6.968;2023-12-14T04:25:46;20.02;;;18.42;;
27977;SDS011;15314;49.248;6.968;2023-12-14T04:26:46;18.92;;;17.42;;
27977;SDS011;15314;49.248;6.968;2023-12-14T04:27:47;20.60;;;18.77;;
27977;SDS011;15314;49.248;6.968;2023-12-14T04:28:48;19.48;;;17.98;;
27977;SDS011;15314;49.248;6.968;2023-12-14T04:29:50;19.95;;;18.35;;
27977;SDS011;15314;49.248;6.968;2023-12-14T04:30:50;19.45;;;17.85;;
27977;SDS011;15314;49.248;6.968;2023-12-14T04:31:51;19.80;;;18.20;;
27977;SDS011;15314;49.248;6.968;2023-12-14T04:32:53;19.77;;;18.17;;
27977;SDS011;15314;49.248;6.968;2023-12-14T04:33:54;19.33;;;17.83;;
27977;SDS011;15314;49.248;6.968;2023-12-14T04:34:54;19.10;;;17.30;;
27977;SDS011;15314;49.248;6.968;2023-12-14T04:35:55;18.75;;;17.15;;
27977;SDS011;15314;49.248;6.968;2023-12-14T04:36:56;21.05;;;19.13;;
27977;SDS011;15314;49.248;6.968;2023-12-14T04:37:57;19.20;;;17.52;;
27977;SDS011;15314;49.248;6.968;2023-12-14T04:38:58;20.70;;;18.95;;
27977;SDS011;15314;49.248;6.968;2023-12-14T04:39:58;19.50;;;17.95;;
27977;SDS011;15314;49.248;6.968;2023-12-14T04:40:59;19.83;;;18.10;;
27977;SDS011;15314;49.248;6.968;2023-12-14T04:42:00;19.20;;;17.45;;
27977;SDS011;15314;49.248;6.968;2023-12-14T04:43:01;21.13;;;19.40;;
27977;SDS011;15314;49.248;6.968;2023-12-14T04:44:02;20.25;;;18.17;;
27977;SDS011;15314;49.248;6.968;2023-12-14T04:45:04;19.80;;;18.20;;
27977;SDS011;15314;49.248;6.968;2023-12-14T04:46:05;19.20;;;17.58;;
27977;SDS011;15314;49.248;6.968;2023-12-14T04:47:06;20.88;;;19.15;;
27977;SDS011;15314;49.248;6.968;2023-12-14T04:48:08;20.30;;;18.60;;
27977;SDS011;15314;49.248;6.968;2023-12-14T04:49:08;21.08;;;19.30;;
27977;SDS011;15314;49.248;6.968;2023-12-14T04:50:09;21.15;;;19.27;;
27977;SDS011;15314;49.248;6.968;2023-12-14T04:51:12;19.70;;;18.00;;
27977;SDS011;15314;49.248;6.968;2023-12-14T04:52:13;20.83;;;19.05;;
27977;SDS011;15314;49.248;6.968;2023-12-14T04:53:14;20.98;;;18.83;;
27977;SDS011;15314;49.248;6.968;2023-12-14T04:54:14;20.48;;;18.77;;
27977;SDS011;15314;49.248;6.968;2023-12-14T04:55:15;21.30;;;19.50;;
27977;SDS011;15314;49.248;6.968;2023-12-14T04:56:15;22.08;;;20.15;;
27977;SDS011;15314;49.248;6.968;2023-12-14T04:57:16;22.00;;;20.02;;
27977;SDS011;15314;49.248;6.968;2023-12-14T04:58:18;21.73;;;19.92;;
27977;SDS011;15314;49.248;6.968;2023-12-14T04:59:18;22.00;;;20.05;;
27977;SDS011;15314;49.248;6.968;2023-12-14T05:00:19;22.10;;;19.88;;
27977;SDS011;15314;49.248;6.968;2023-12-14T05:01:20;22.75;;;20.33;;
27977;SDS011;15314;49.248;6.968;2023-12-14T05:02:20;22.48;;;20.33;;
27977;SDS011;15314;49.248;6.968;2023-12-14T05:03:21;23.13;;;21.08;;
27977;SDS011;15314;49.248;6.968;2023-12-14T05:04:21;22.58;;;20.48;;
27977;SDS011;15314;49.248;6.968;2023-12-14T05:05:22;20.30;;;18.55;;
27977;SDS011;15314;49.248;6.968;2023-12-14T05:06:23;22.02;;;19.77;;
27977;SDS011;15314;49.248;6.968;2023-12-14T05:07:23;25.08;;;22.52;;
27977;SDS011;15314;49.248;6.968;2023-12-14T05:08:24;24.23;;;21.70;;
27977;SDS011;15314;49.248;6.968;2023-12-14T05:09:25;23.35;;;21.08;;
27977;SDS011;15314;49.248;6.968;2023-12-14T05:10:25;22.85;;;20.75;;
27977;SDS011;15314;49.248;6.968;2023-12-14T05:11:26;23.27;;;20.88;;
27977;SDS011;15314;49.248;6.968;2023-12-14T05:12:26;22.40;;;20.25;;
27977;SDS011;15314;49.248;6.968;2023-12-14T05:13:29;22.70;;;20.63;;
27977;SDS011;15314;49.248;6.968;2023-12-14T05:14:30;21.95;;;19.95;;
27977;SDS011;15314;49.248;6.968;2023-12-14T05:15:30;23.98;;;21.67;;
27977;SDS011;15314;49.248;6.968;2023-12-14T05:16:31;22.55;;;20.45;;
27977;SDS011;15314;49.248;6.968;2023-12-14T05:17:32;23.10;;;20.85;;
27977;SDS011;15314;49.248;6.968;2023-12-14T05:18:32;21.42;;;19.42;;
27977;SDS011;15314;49.248;6.968;2023-12-14T05:19:33;22.40;;;20.25;;
27977;SDS011;15314;49.248;6.968;2023-12-14T05:20:34;22.20;;;20.13;;
27977;SDS011;15314;49.248;6.968;2023-12-14T05:21:35;21.10;;;19.30;;
27977;SDS011;15314;49.248;6.968;2023-12-14T05:22:36;21.38;;;19.50;;
27977;SDS011;15314;49.248;6.968;2023-12-14T05:23:37;21.25;;;19.42;;
27977;SDS011;15314;49.248;6.968;2023-12-14T05:24:38;24.55;;;22.17;;
27977;SDS011;15314;49.248;6.968;2023-12-14T05:25:38;21.88;;;19.92;;
27977;SDS011;15314;49.248;6.968;2023-12-14T05:26:39;21.98;;;19.85;;
27977;SDS011;15314;49.248;6.968;2023-12-14T05:27:40;24.80;;;22.23;;
27977;SDS011;15314;49.248;6.968;2023-12-14T05:28:41;24.05;;;21.75;;
27977;SDS011;15314;49.248;6.968;2023-12-14T05:29:41;23.70;;;21.33;;
27977;SDS011;15314;49.248;6.968;2023-12-14T05:30:42;23.30;;;20.80;;
27977;SDS011;15314;49.248;6.968;2023-12-14T05:31:42;23.02;;;20.73;;
27977;SDS011;15314;49.248;6.968;2023-12-14T05:32:43;21.30;;;19.40;;
27977;SDS011;15314;49.248;6.968;2023-12-14T05:33:44;21.23;;;19.33;;
27977;SDS011;15314;49.248;6.968;2023-12-14T05:34:44;22.63;;;20.60;;
27977;SDS011;15314;49.248;6.968;2023-12-14T05:35:45;21.60;;;19.80;;
27977;SDS011;15314;49.248;6.968;2023-12-14T05:36:46;22.25;;;19.98;;
27977;SDS011;15314;49.248;6.968;2023-12-14T05:37:47;24.05;;;21.73;;
27977;SDS011;15314;49.248;6.968;2023-12-14T05:38:48;21.77;;;19.77;;
27977;SDS011;15314;49.248;6.968;2023-12-14T05:39:48;22.38;;;20.48;;
27977;SDS011;15314;49.248;6.968;2023-12-14T05:40:49;23.20;;;20.92;;
27977;SDS011;15314;49.248;6.968;2023-12-14T05:41:49;20.67;;;18.73;;
27977;SDS011;15314;49.248;6.968;2023-12-14T05:42:50;21.20;;;19.30;;
27977;SDS011;15314;49.248;6.968;2023-12-14T05:43:51;23.58;;;21.33;;
27977;SDS011;15314;49.248;6.968;2023-12-14T05:44:51;23.92;;;21.73;;
27977;SDS011;15314;49.248;6.968;2023-12-14T05:45:52;23.30;;;20.90;;
27977;SDS011;15314;49.248;6.968;2023-12-14T05:46:53;22.67;;;20.52;;
27977;SDS011;15314;49.248;6.968;2023-12-14T05:47:53;22.85;;;20.48;;
27977;SDS011;15314;49.248;6.968;2023-12-14T05:48:54;23.00;;;20.92;;
27977;SDS011;15314;49.248;6.968;2023-12-14T05:49:55;26.13;;;23.10;;
27977;SDS011;15314;49.248;6.968;2023-12-14T05:50:56;28.83;;;25.10;;
27977;SDS011;15314;49.248;6.968;2023-12-14T05:51:58;26.40;;;23.70;;
27977;SDS011;15314;49.248;6.968;2023-12-14T05:53:00;23.73;;;21.52;;
27977;SDS011;15314;49.248;6.968;2023-12-14T05:54:00;23.10;;;21.00;;
27977;SDS011;15314;49.248;6.968;2023-12-14T05:55:01;26.02;;;23.17;;
27977;SDS011;15314;49.248;6.968;2023-12-14T05:56:02;23.50;;;21.20;;
27977;SDS011;15314;49.248;6.968;2023-12-14T05:57:03;23.20;;;20.90;;
27977;SDS011;15314;49.248;6.968;2023-12-14T05:58:04;24.83;;;22.33;;
27977;SDS011;15314;49.248;6.968;2023-12-14T05:59:04;25.20;;;22.88;;
27977;SDS011;15314;49.248;6.968;2023-12-14T06:00:05;23.75;;;21.45;;
27977;SDS011;15314;49.248;6.968;2023-12-14T06:01:07;24.35;;;22.08;;
27977;SDS011;15314;49.248;6.968;2023-12-14T06:02:08;24.13;;;21.73;;
27977;SDS011;15314;49.248;6.968;2023-12-14T06:03:09;23.80;;;21.50;;
27977;SDS011;15314;49.248;6.968;2023-12-14T06:04:09;22.58;;;20.42;;
27977;SDS011;15314;49.248;6.968;2023-12-14T06:05:11;23.48;;;21.10;;
27977;SDS011;15314;49.248;6.968;2023-12-14T06:06:12;21.95;;;19.98;;
27977;SDS011;15314;49.248;6.968;2023-12-14T06:07:16;22.05;;;20.00;;
27977;SDS011;15314;49.248;6.968;2023-12-14T06:08:17;20.88;;;18.98;;
27977;SDS011;15314;49.248;6.968;2023-12-14T06:09:17;25.20;;;22.70;;
27977;SDS011;15314;49.248;6.968;2023-12-14T06:10:21;23.85;;;21.67;;
27977;SDS011;15314;49.248;6.968;2023-12-14T06:11:22;23.70;;;21.42;;
27977;SDS011;15314;49.248;6.968;2023-12-14T06:12:23;21.65;;;19.77;;
27977;SDS011;15314;49.248;6.968;2023-12-14T06:13:23;21.90;;;19.88;;